sensor_id;sensor_type;location;lat;lon;timestamp;pressure;altitude;pressure_sealevel;temperature;humidity
70781;BME280;59514;48.810;2.134;2022-12-07T00:01:29;100875.72;;;0.74;100.00
70781;BME280;59514;48.810;2.134;2022-12-07T00:03:56;100871.09;;;0.76;100.00
70781;BME280;59514;48.810;2.134;2022-12-07T00:06:37;100872.88;;;0.85;100.00
70781;BME280;59514;48.810;2.134;2022-12-07T00:09:04;100890.50;;;0.67;100.00
70781;BME280;59514;48.810;2.134;2022-12-07T00:11:30;100870.88;;;0.70;100.00
70781;BME280;59514;48.810;2.134;2022-12-07T00:13:57;100876.78;;;0.37;100.00
70781;BME280;59514;48.810;2.134;2022-12-07T00:16:25;100869.31;;;0.50;100.00
70781;BME280;59514;48.810;2.134;2022-12-07T00:18:51;100871.25;;;0.57;100.00
70781;BME280;59514;48.810;2.134;2022-12-07T00:21:20;100861.50;;;0.58;100.00
70781;BME280;59514;48.810;2.134;2022-12-07T00:23:47;100867.66;;;0.49;100.00
70781;BME280;59514;48.810;2.134;2022-12-07T00:26:16;100864.84;;;0.33;100.00
70781;BME280;59514;48.810;2.134;2022-12-07T00:28:45;100858.34;;;0.27;100.00
70781;BME280;59514;48.810;2.134;2022-12-07T00:31:13;100862.34;;;0.31;100.00
70781;BME280;59514;48.810;2.134;2022-12-07T00:33:38;100867.19;;;0.36;100.00
70781;BME280;59514;48.810;2.134;2022-12-07T00:36:07;100867.88;;;0.11;100.00
70781;BME280;59514;48.810;2.134;2022-12-07T00:38:34;100864.38;;;0.10;100.00
70781;BME280;59514;48.810;2.134;2022-12-07T00:41:24;100854.81;;;0.36;100.00
70781;BME280;59514;48.810;2.134;2022-12-07T00:43:50;100860.88;;;0.46;100.00
70781;BME280;59514;48.810;2.134;2022-12-07T00:46:16;100855.41;;;0.30;100.00
70781;BME280;59514;48.810;2.134;2022-12-07T00:48:42;100855.78;;;0.08;100.00
70781;BME280;59514;48.810;2.134;2022-12-07T00:51:09;100851.38;;;-0.01;100.00
70781;BME280;59514;48.810;2.134;2022-12-07T00:53:37;100847.09;;;0.25;100.00
70781;BME280;59514;48.810;2.134;2022-12-07T00:56:11;100850.44;;;0.27;100.00
70781;BME280;59514;48.810;2.134;2022-12-07T00:58:36;100849.78;;;0.16;100.00
70781;BME280;59514;48.810;2.134;2022-12-07T01:01:03;100851.78;;;0.31;100.00
70781;BME280;59514;48.810;2.134;2022-12-07T01:03:29;100858.50;;;0.26;100.00
70781;BME280;59514;48.810;2.134;2022-12-07T01:05:55;100846.91;;;0.09;100.00
70781;BME280;59514;48.810;2.134;2022-12-07T01:08:22;100862.94;;;-0.12;100.00
70781;BME280;59514;48.810;2.134;2022-12-07T01:10:49;100867.13;;;-0.09;100.00
70781;BME280;59514;48.810;2.134;2022-12-07T01:13:15;100855.69;;;-0.37;100.00
70781;BME280;59514;48.810;2.134;2022-12-07T01:15:41;100854.22;;;-0.12;100.00
70781;BME280;59514;48.810;2.134;2022-12-07T01:18:06;100856.47;;;0.10;100.00
70781;BME280;59514;48.810;2.134;2022-12-07T01:20:32;100857.50;;;-0.01;100.00
70781;BME280;59514;48.810;2.134;2022-12-07T01:22:57;100855.94;;;-0.30;100.00
70781;BME280;59514;48.810;2.134;2022-12-07T01:25:22;100863.69;;;-0.19;100.00
70781;BME280;59514;48.810;2.134;2022-12-07T01:27:47;100853.34;;;-0.03;100.00
70781;BME280;59514;48.810;2.134;2022-12-07T01:30:13;100856.97;;;-0.04;100.00
70781;BME280;59514;48.810;2.134;2022-12-07T01:32:39;100857.34;;;0.01;100.00
70781;BME280;59514;48.810;2.134;2022-12-07T01:35:05;100839.09;;;0.17;100.00
70781;BME280;59514;48.810;2.134;2022-12-07T01:37:34;100841.06;;;0.33;100.00
70781;BME280;59514;48.810;2.134;2022-12-07T01:40:00;100844.16;;;0.28;100.00
70781;BME280;59514;48.810;2.134;2022-12-07T01:42:25;100840.16;;;0.24;100.00
70781;BME280;59514;48.810;2.134;2022-12-07T01:48:14;100838.53;;;0.41;100.00
70781;BME280;59514;48.810;2.134;2022-12-07T01:50:42;100838.97;;;0.36;100.00
70781;BME280;59514;48.810;2.134;2022-12-07T01:53:09;100837.56;;;0.42;100.00
70781;BME280;59514;48.810;2.134;2022-12-07T01:55:38;100830.38;;;0.52;100.00
70781;BME280;59514;48.810;2.134;2022-12-07T01:58:04;100831.19;;;0.35;100.00
70781;BME280;59514;48.810;2.134;2022-12-07T02:00:29;100824.72;;;0.47;100.00
70781;BME280;59514;48.810;2.134;2022-12-07T02:02:58;100812.66;;;0.62;100.00
70781;BME280;59514;48.810;2.134;2022-12-07T02:05:26;100819.78;;;0.61;100.00
70781;BME280;59514;48.810;2.134;2022-12-07T02:07:55;100816.97;;;0.63;100.00
70781;BME280;59514;48.810;2.134;2022-12-07T02:10:25;100820.38;;;0.73;100.00
70781;BME280;59514;48.810;2.134;2022-12-07T02:12:59;100817.56;;;0.74;100.00
70781;BME280;59514;48.810;2.134;2022-12-07T02:19:12;100823.84;;;0.73;100.00
70781;BME280;59514;48.810;2.134;2022-12-07T02:21:52;100826.03;;;0.78;100.00
70781;BME280;59514;48.810;2.134;2022-12-07T02:30:04;100825.66;;;0.91;100.00
70781;BME280;59514;48.810;2.134;2022-12-07T02:32:44;100824.91;;;0.80;100.00
70781;BME280;59514;48.810;2.134;2022-12-07T02:35:18;100831.38;;;0.86;100.00
70781;BME280;59514;48.810;2.134;2022-12-07T02:42:50;100819.00;;;0.86;100.00
70781;BME280;59514;48.810;2.134;2022-12-07T02:45:19;100821.88;;;0.93;100.00
70781;BME280;59514;48.810;2.134;2022-12-07T02:47:48;100816.28;;;0.96;100.00
70781;BME280;59514;48.810;2.134;2022-12-07T02:50:18;100815.66;;;1.02;100.00
70781;BME280;59514;48.810;2.134;2022-12-07T02:52:44;100824.44;;;1.03;100.00
70781;BME280;59514;48.810;2.134;2022-12-07T02:55:10;100822.47;;;1.05;100.00
70781;BME280;59514;48.810;2.134;2022-12-07T02:58:07;100815.44;;;0.96;100.00
70781;BME280;59514;48.810;2.134;2022-12-07T03:00:51;100821.06;;;0.93;100.00
70781;BME280;59514;48.810;2.134;2022-12-07T03:03:20;100818.47;;;1.01;100.00
70781;BME280;59514;48.810;2.134;2022-12-07T03:08:38;100815.75;;;0.93;100.00
70781;BME280;59514;48.810;2.134;2022-12-07T03:11:16;100809.56;;;1.02;100.00
70781;BME280;59514;48.810;2.134;2022-12-07T03:14:00;100805.84;;;1.12;100.00
70781;BME280;59514;48.810;2.134;2022-12-07T03:16:47;100809.31;;;1.13;100.00
70781;BME280;59514;48.810;2.134;2022-12-07T03:19:18;100807.28;;;1.07;100.00
70781;BME280;59514;48.810;2.134;2022-12-07T03:21:49;100804.88;;;0.96;100.00
70781;BME280;59514;48.810;2.134;2022-12-07T03:24:21;100796.25;;;0.94;100.00
70781;BME280;59514;48.810;2.134;2022-12-07T03:27:02;100798.47;;;0.98;100.00
70781;BME280;59514;48.810;2.134;2022-12-07T03:29:34;100797.78;;;0.96;100.00
70781;BME280;59514;48.810;2.134;2022-12-07T03:32:18;100792.81;;;0.93;100.00
70781;BME280;59514;48.810;2.134;2022-12-07T03:34:56;100783.72;;;0.96;100.00
70781;BME280;59514;48.810;2.134;2022-12-07T03:37:33;100782.94;;;0.77;100.00
70781;BME280;59514;48.810;2.134;2022-12-07T03:40:05;100773.75;;;0.89;100.00
70781;BME280;59514;48.810;2.134;2022-12-07T03:42:32;100781.25;;;0.94;100.00
70781;BME280;59514;48.810;2.134;2022-12-07T03:44:58;100780.13;;;0.97;100.00
70781;BME280;59514;48.810;2.134;2022-12-07T03:47:32;100784.28;;;0.99;100.00
70781;BME280;59514;48.810;2.134;2022-12-07T03:50:19;100781.00;;;0.87;100.00
70781;BME280;59514;48.810;2.134;2022-12-07T03:52:55;100778.63;;;0.76;100.00
70781;BME280;59514;48.810;2.134;2022-12-07T03:55:28;100774.47;;;0.74;100.00
70781;BME280;59514;48.810;2.134;2022-12-07T03:57:58;100771.63;;;0.67;100.00
70781;BME280;59514;48.810;2.134;2022-12-07T04:00:25;100776.16;;;0.57;100.00
70781;BME280;59514;48.810;2.134;2022-12-07T04:02:52;100773.25;;;0.68;100.00
70781;BME280;59514;48.810;2.134;2022-12-07T04:05:17;100775.31;;;0.74;100.00
70781;BME280;59514;48.810;2.134;2022-12-07T04:07:43;100773.34;;;0.76;100.00
70781;BME280;59514;48.810;2.134;2022-12-07T04:10:09;100776.97;;;0.75;100.00
70781;BME280;59514;48.810;2.134;2022-12-07T04:12:34;100771.91;;;0.47;100.00
70781;BME280;59514;48.810;2.134;2022-12-07T04:14:59;100772.28;;;0.34;100.00
70781;BME280;59514;48.810;2.134;2022-12-07T04:17:25;100773.88;;;0.27;100.00
70781;BME280;59514;48.810;2.134;2022-12-07T04:19:50;100770.72;;;0.14;100.00
70781;BME280;59514;48.810;2.134;2022-12-07T04:22:15;100771.38;;;-0.02;100.00
70781;BME280;59514;48.810;2.134;2022-12-07T04:24:41;100778.19;;;-0.26;100.00
70781;BME280;59514;48.810;2.134;2022-12-07T04:27:06;100781.63;;;-0.26;100.00
70781;BME280;59514;48.810;2.134;2022-12-07T04:29:31;100777.28;;;-0.44;100.00
70781;BME280;59514;48.810;2.134;2022-12-07T04:31:56;100784.97;;;-0.24;100.00
70781;BME280;59514;48.810;2.134;2022-12-07T04:34:22;100785.72;;;-0.04;100.00
70781;BME280;59514;48.810;2.134;2022-12-07T04:36:47;100788.44;;;0.04;100.00
70781;BME280;59514;48.810;2.134;2022-12-07T04:39:30;100782.19;;;0.05;100.00
70781;BME280;59514;48.810;2.134;2022-12-07T04:41:56;100789.13;;;0.06;100.00
70781;BME280;59514;48.810;2.134;2022-12-07T04:44:22;100783.75;;;0.25;100.00
70781;BME280;59514;48.810;2.134;2022-12-07T04:46:48;100774.53;;;0.29;100.00
70781;BME280;59514;48.810;2.134;2022-12-07T04:49:15;100776.00;;;0.14;100.00
70781;BME280;59514;48.810;2.134;2022-12-07T04:51:40;100782.97;;;0.15;100.00
70781;BME280;59514;48.810;2.134;2022-12-07T04:54:06;100784.03;;;0.22;100.00
70781;BME280;59514;48.810;2.134;2022-12-07T04:56:32;100780.00;;;0.45;100.00
70781;BME280;59514;48.810;2.134;2022-12-07T04:58:58;100787.22;;;0.43;100.00
70781;BME280;59514;48.810;2.134;2022-12-07T05:01:24;100777.44;;;0.53;100.00
70781;BME280;59514;48.810;2.134;2022-12-07T05:03:50;100769.72;;;0.42;100.00
70781;BME280;59514;48.810;2.134;2022-12-07T05:06:15;100778.22;;;0.36;100.00
70781;BME280;59514;48.810;2.134;2022-12-07T05:08:41;100779.22;;;0.35;100.00
70781;BME280;59514;48.810;2.134;2022-12-07T05:11:09;100769.44;;;0.45;100.00
70781;BME280;59514;48.810;2.134;2022-12-07T05:13:55;100769.72;;;0.60;100.00
70781;BME280;59514;48.810;2.134;2022-12-07T05:16:21;100772.44;;;0.50;100.00
70781;BME280;59514;48.810;2.134;2022-12-07T05:18:46;100770.44;;;0.17;100.00
70781;BME280;59514;48.810;2.134;2022-12-07T05:21:12;100771.50;;;0.24;100.00
70781;BME280;59514;48.810;2.134;2022-12-07T05:23:37;100775.03;;;0.15;100.00
70781;BME280;59514;48.810;2.134;2022-12-07T05:26:02;100775.22;;;0.31;100.00
70781;BME280;59514;48.810;2.134;2022-12-07T05:28:28;100772.28;;;0.34;100.00
70781;BME280;59514;48.810;2.134;2022-12-07T05:30:53;100775.22;;;0.31;100.00
70781;BME280;59514;48.810;2.134;2022-12-07T05:33:18;100771.31;;;0.35;100.00
70781;BME280;59514;48.810;2.134;2022-12-07T05:35:43;100767.16;;;0.50;100.00
70781;BME280;59514;48.810;2.134;2022-12-07T05:38:09;100761.66;;;0.61;100.00
70781;BME280;59514;48.810;2.134;2022-12-07T05:40:34;100763.47;;;0.61;100.00
70781;BME280;59514;48.810;2.134;2022-12-07T05:42:59;100764.75;;;0.39;100.00
70781;BME280;59514;48.810;2.134;2022-12-07T05:45:25;100764.00;;;0.47;100.00
70781;BME280;59514;48.810;2.134;2022-12-07T05:47:50;100767.63;;;0.63;100.00
70781;BME280;59514;48.810;2.134;2022-12-07T05:50:15;100770.19;;;0.55;100.00
70781;BME280;59514;48.810;2.134;2022-12-07T05:52:41;100780.19;;;0.52;100.00
70781;BME280;59514;48.810;2.134;2022-12-07T05:55:06;100776.91;;;0.67;100.00
70781;BME280;59514;48.810;2.134;2022-12-07T05:57:32;100773.84;;;0.80;100.00
70781;BME280;59514;48.810;2.134;2022-12-07T05:59:57;100776.50;;;0.80;100.00
70781;BME280;59514;48.810;2.134;2022-12-07T06:02:22;100774.69;;;0.80;100.00
70781;BME280;59514;48.810;2.134;2022-12-07T06:04:48;100772.38;;;0.77;100.00
70781;BME280;59514;48.810;2.134;2022-12-07T06:07:15;100769.03;;;0.93;100.00
70781;BME280;59514;48.810;2.134;2022-12-07T06:09:40;100776.47;;;0.98;100.00
70781;BME280;59514;48.810;2.134;2022-12-07T06:12:06;100775.06;;;1.03;100.00
70781;BME280;59514;48.810;2.134;2022-12-07T06:14:50;100777.09;;;0.92;100.00
70781;BME280;59514;48.810;2.134;2022-12-07T06:17:16;100773.06;;;0.79;100.00
70781;BME280;59514;48.810;2.134;2022-12-07T06:19:42;100768.81;;;0.86;100.00
70781;BME280;59514;48.810;2.134;2022-12-07T06:22:10;100770.41;;;0.79;100.00
70781;BME280;59514;48.810;2.134;2022-12-07T06:24:37;100765.03;;;0.89;100.00
70781;BME280;59514;48.810;2.134;2022-12-07T06:27:03;100769.66;;;0.69;100.00
70781;BME280;59514;48.810;2.134;2022-12-07T06:29:28;100777.44;;;0.71;100.00
70781;BME280;59514;48.810;2.134;2022-12-07T06:31:54;100767.97;;;0.86;100.00
70781;BME280;59514;48.810;2.134;2022-12-07T06:34:21;100773.47;;;0.93;100.00
70781;BME280;59514;48.810;2.134;2022-12-07T06:36:48;100772.34;;;0.95;100.00
70781;BME280;59514;48.810;2.134;2022-12-07T06:39:17;100768.94;;;1.03;100.00
70781;BME280;59514;48.810;2.134;2022-12-07T06:41:43;100778.22;;;1.07;100.00
70781;BME280;59514;48.810;2.134;2022-12-07T06:44:08;100769.22;;;1.00;100.00
70781;BME280;59514;48.810;2.134;2022-12-07T06:46:34;100781.47;;;1.01;100.00
70781;BME280;59514;48.810;2.134;2022-12-07T06:49:00;100787.13;;;1.06;100.00
70781;BME280;59514;48.810;2.134;2022-12-07T06:51:26;100782.66;;;1.06;100.00
70781;BME280;59514;48.810;2.134;2022-12-07T06:53:51;100783.94;;;1.02;100.00
70781;BME280;59514;48.810;2.134;2022-12-07T06:56:16;100781.84;;;0.88;100.00
70781;BME280;59514;48.810;2.134;2022-12-07T06:58:41;100773.16;;;0.96;100.00
70781;BME280;59514;48.810;2.134;2022-12-07T07:01:11;100782.66;;;1.06;100.00
70781;BME280;59514;48.810;2.134;2022-12-07T07:03:37;100783.50;;;1.07;100.00
70781;BME280;59514;48.810;2.134;2022-12-07T07:06:03;100782.94;;;0.77;100.00
70781;BME280;59514;48.810;2.134;2022-12-07T07:08:29;100787.38;;;0.95;100.00
70781;BME280;59514;48.810;2.134;2022-12-07T07:10:54;100785.09;;;1.00;100.00
70781;BME280;59514;48.810;2.134;2022-12-07T07:13:19;100779.34;;;1.04;100.00
70781;BME280;59514;48.810;2.134;2022-12-07T07:15:45;100781.88;;;1.14;100.00
70781;BME280;59514;48.810;2.134;2022-12-07T07:18:10;100784.19;;;1.09;100.00
70781;BME280;59514;48.810;2.134;2022-12-07T07:20:36;100782.72;;;1.14;100.00
70781;BME280;59514;48.810;2.134;2022-12-07T07:23:02;100772.38;;;1.21;100.00
70781;BME280;59514;48.810;2.134;2022-12-07T07:25:27;100777.94;;;1.18;100.00
70781;BME280;59514;48.810;2.134;2022-12-07T07:27:52;100777.34;;;1.24;100.00
70781;BME280;59514;48.810;2.134;2022-12-07T07:30:18;100780.31;;;1.21;100.00
70781;BME280;59514;48.810;2.134;2022-12-07T07:32:43;100770.47;;;1.31;100.00
70781;BME280;59514;48.810;2.134;2022-12-07T07:35:08;100782.63;;;1.24;100.00
70781;BME280;59514;48.810;2.134;2022-12-07T07:37:34;100782.00;;;1.30;100.00
70781;BME280;59514;48.810;2.134;2022-12-07T07:39:59;100784.75;;;1.20;100.00
70781;BME280;59514;48.810;2.134;2022-12-07T07:42:24;100782.50;;;1.08;100.00
70781;BME280;59514;48.810;2.134;2022-12-07T07:44:50;100783.94;;;1.02;100.00
70781;BME280;59514;48.810;2.134;2022-12-07T07:47:15;100795.03;;;1.06;100.00
70781;BME280;59514;48.810;2.134;2022-12-07T07:49:40;100793.81;;;1.18;100.00
70781;BME280;59514;48.810;2.134;2022-12-07T07:52:06;100785.94;;;1.26;100.00
70781;BME280;59514;48.810;2.134;2022-12-07T07:54:32;100786.56;;;1.20;100.00
70781;BME280;59514;48.810;2.134;2022-12-07T07:56:57;100782.63;;;1.24;100.00
70781;BME280;59514;48.810;2.134;2022-12-07T07:59:23;100785.66;;;1.29;100.00
70781;BME280;59514;48.810;2.134;2022-12-07T08:01:48;100791.72;;;1.21;100.00
70781;BME280;59514;48.810;2.134;2022-12-07T08:04:13;100797.69;;;1.23;100.00
70781;BME280;59514;48.810;2.134;2022-12-07T08:06:39;100798.50;;;1.24;100.00
70781;BME280;59514;48.810;2.134;2022-12-07T08:09:04;100800.25;;;1.15;100.00
70781;BME280;59514;48.810;2.134;2022-12-07T08:11:31;100794.06;;;1.07;100.00
70781;BME280;59514;48.810;2.134;2022-12-07T08:13:56;100785.13;;;1.25;100.00
70781;BME280;59514;48.810;2.134;2022-12-07T08:16:21;100793.81;;;1.18;100.00
70781;BME280;59514;48.810;2.134;2022-12-07T08:18:47;100788.16;;;1.13;100.00
70781;BME280;59514;48.810;2.134;2022-12-07T08:21:13;100802.06;;;1.15;100.00
70781;BME280;59514;48.810;2.134;2022-12-07T08:23:39;100802.59;;;1.18;100.00
70781;BME280;59514;48.810;2.134;2022-12-07T08:26:13;100795.91;;;1.32;100.00
70781;BME280;59514;48.810;2.134;2022-12-07T08:28:39;100804.22;;;1.37;100.00
70781;BME280;59514;48.810;2.134;2022-12-07T08:31:07;100796.84;;;1.23;100.00
70781;BME280;59514;48.810;2.134;2022-12-07T08:33:34;100808.94;;;1.25;100.00
70781;BME280;59514;48.810;2.134;2022-12-07T08:36:04;100808.34;;;1.39;100.00
70781;BME280;59514;48.810;2.134;2022-12-07T08:38:30;100809.69;;;1.43;100.00
70781;BME280;59514;48.810;2.134;2022-12-07T08:40:56;100807.09;;;1.51;100.00
70781;BME280;59514;48.810;2.134;2022-12-07T08:43:22;100811.25;;;1.54;100.00
70781;BME280;59514;48.810;2.134;2022-12-07T08:45:56;100812.94;;;1.55;100.00
70781;BME280;59514;48.810;2.134;2022-12-07T08:48:26;100816.66;;;1.19;100.00
70781;BME280;59514;48.810;2.134;2022-12-07T08:50:52;100820.66;;;1.23;100.00
70781;BME280;59514;48.810;2.134;2022-12-07T08:53:17;100821.47;;;1.23;100.00
70781;BME280;59514;48.810;2.134;2022-12-07T08:55:44;100825.88;;;1.15;100.00
70781;BME280;59514;48.810;2.134;2022-12-07T08:58:10;100812.38;;;1.26;100.00
70781;BME280;59514;48.810;2.134;2022-12-07T09:00:36;100815.53;;;1.29;100.00
70781;BME280;59514;48.810;2.134;2022-12-07T09:03:01;100808.56;;;1.20;100.00
70781;BME280;59514;48.810;2.134;2022-12-07T09:05:26;100813.75;;;1.30;100.00
70781;BME280;59514;48.810;2.134;2022-12-07T09:07:55;100820.19;;;1.27;100.00
70781;BME280;59514;48.810;2.134;2022-12-07T09:10:22;100817.69;;;1.26;100.00
70781;BME280;59514;48.810;2.134;2022-12-07T09:12:48;100816.88;;;1.51;100.00
70781;BME280;59514;48.810;2.134;2022-12-07T09:15:14;100818.34;;;1.53;100.00
70781;BME280;59514;48.810;2.134;2022-12-07T09:17:39;100812.88;;;1.47;100.00
70781;BME280;59514;48.810;2.134;2022-12-07T09:20:06;100814.78;;;1.37;100.00
70781;BME280;59514;48.810;2.134;2022-12-07T09:22:32;100819.03;;;1.30;100.00
70781;BME280;59514;48.810;2.134;2022-12-07T09:24:58;100817.28;;;1.38;100.00
70781;BME280;59514;48.810;2.134;2022-12-07T09:27:24;100815.66;;;1.45;100.00
70781;BME280;59514;48.810;2.134;2022-12-07T09:29:50;100813.44;;;1.58;100.00
70781;BME280;59514;48.810;2.134;2022-12-07T09:32:15;100813.84;;;1.71;100.00
70781;BME280;59514;48.810;2.134;2022-12-07T09:34:41;100817.38;;;1.80;100.00
70781;BME280;59514;48.810;2.134;2022-12-07T09:37:06;100807.16;;;1.93;100.00
70781;BME280;59514;48.810;2.134;2022-12-07T09:39:32;100812.38;;;1.77;100.00
70781;BME280;59514;48.810;2.134;2022-12-07T09:41:59;100812.91;;;1.81;100.00
70781;BME280;59514;48.810;2.134;2022-12-07T09:44:27;100818.34;;;1.79;100.00
70781;BME280;59514;48.810;2.134;2022-12-07T09:46:53;100816.19;;;1.74;100.00
70781;BME280;59514;48.810;2.134;2022-12-07T09:49:21;100807.75;;;1.79;100.00
70781;BME280;59514;48.810;2.134;2022-12-07T09:51:58;100807.44;;;1.82;100.00
70781;BME280;59514;48.810;2.134;2022-12-07T09:54:24;100807.38;;;2.00;100.00
70781;BME280;59514;48.810;2.134;2022-12-07T09:56:49;100803.41;;;2.04;100.00
70781;BME280;59514;48.810;2.134;2022-12-07T09:59:18;100803.59;;;2.10;100.00
70781;BME280;59514;48.810;2.134;2022-12-07T10:01:46;100797.16;;;2.13;100.00
70781;BME280;59514;48.810;2.134;2022-12-07T10:04:14;100792.41;;;2.24;100.00
70781;BME280;59514;48.810;2.134;2022-12-07T10:06:42;100788.06;;;2.15;100.00
70781;BME280;59514;48.810;2.134;2022-12-07T10:09:11;100793.06;;;2.26;100.00
70781;BME280;59514;48.810;2.134;2022-12-07T10:12:09;100781.94;;;2.23;100.00
70781;BME280;59514;48.810;2.134;2022-12-07T10:14:38;100796.72;;;2.33;100.00
70781;BME280;59514;48.810;2.134;2022-12-07T10:17:36;100791.09;;;2.28;100.00
70781;BME280;59514;48.810;2.134;2022-12-07T10:20:26;100788.50;;;2.52;100.00
70781;BME280;59514;48.810;2.134;2022-12-07T10:23:05;100788.50;;;2.44;100.00
70781;BME280;59514;48.810;2.134;2022-12-07T10:25:38;100791.78;;;2.38;100.00
70781;BME280;59514;48.810;2.134;2022-12-07T10:28:13;100783.50;;;2.41;100.00
70781;BME280;59514;48.810;2.134;2022-12-07T10:30:55;100772.56;;;2.36;100.00
70781;BME280;59514;48.810;2.134;2022-12-07T10:33:33;100779.84;;;2.34;100.00
70781;BME280;59514;48.810;2.134;2022-12-07T10:35:59;100774.91;;;2.47;100.00
70781;BME280;59514;48.810;2.134;2022-12-07T10:38:27;100767.28;;;2.69;100.00
70781;BME280;59514;48.810;2.134;2022-12-07T10:41:03;100768.50;;;2.82;100.00
70781;BME280;59514;48.810;2.134;2022-12-07T10:43:29;100767.16;;;2.86;100.00
70781;BME280;59514;48.810;2.134;2022-12-07T10:48:41;100762.66;;;3.11;100.00
70781;BME280;59514;48.810;2.134;2022-12-07T10:51:27;100752.72;;;3.13;100.00
70781;BME280;59514;48.810;2.134;2022-12-07T10:54:08;100745.59;;;3.13;100.00
70781;BME280;59514;48.810;2.134;2022-12-07T10:56:47;100743.25;;;3.02;100.00
70781;BME280;59514;48.810;2.134;2022-12-07T10:59:42;100736.81;;;3.05;100.00
70781;BME280;59514;48.810;2.134;2022-12-07T11:02:36;100728.53;;;3.16;100.00
70781;BME280;59514;48.810;2.134;2022-12-07T11:13:11;100728.13;;;3.35;100.00
70781;BME280;59514;48.810;2.134;2022-12-07T11:18:49;100714.50;;;3.46;100.00
70781;BME280;59514;48.810;2.134;2022-12-07T11:21:38;100703.41;;;3.42;100.00
70781;BME280;59514;48.810;2.134;2022-12-07T11:24:17;100705.63;;;3.15;100.00
70781;BME280;59514;48.810;2.134;2022-12-07T11:26:54;100704.19;;;2.96;100.00
70781;BME280;59514;48.810;2.134;2022-12-07T11:37:38;100691.72;;;3.05;100.00
70781;BME280;59514;48.810;2.134;2022-12-07T11:40:17;100681.44;;;3.18;100.00
70781;BME280;59514;48.810;2.134;2022-12-07T11:42:52;100679.41;;;3.28;100.00
70781;BME280;59514;48.810;2.134;2022-12-07T11:45:26;100673.56;;;3.40;100.00
70781;BME280;59514;48.810;2.134;2022-12-07T11:47:53;100672.00;;;3.54;100.00
70781;BME280;59514;48.810;2.134;2022-12-07T11:50:33;100669.31;;;3.62;100.00
70781;BME280;59514;48.810;2.134;2022-12-07T11:55:41;100677.69;;;3.43;100.00
70781;BME280;59514;48.810;2.134;2022-12-07T12:04:02;100663.25;;;3.45;100.00
70781;BME280;59514;48.810;2.134;2022-12-07T12:06:32;100651.44;;;3.48;100.00
70781;BME280;59514;48.810;2.134;2022-12-07T12:09:18;100655.38;;;3.21;100.00
70781;BME280;59514;48.810;2.134;2022-12-07T12:21:12;100649.19;;;3.37;100.00
70781;BME280;59514;48.810;2.134;2022-12-07T12:23:44;100640.06;;;3.39;100.00
70781;BME280;59514;48.810;2.134;2022-12-07T12:26:18;100640.19;;;3.46;100.00
70781;BME280;59514;48.810;2.134;2022-12-07T12:29:06;100637.59;;;3.38;100.00
70781;BME280;59514;48.810;2.134;2022-12-07T12:31:39;100639.03;;;3.48;100.00
70781;BME280;59514;48.810;2.134;2022-12-07T12:36:56;100635.81;;;3.61;100.00
70781;BME280;59514;48.810;2.134;2022-12-07T12:39:21;100633.41;;;3.74;100.00
70781;BME280;59514;48.810;2.134;2022-12-07T12:47:00;100622.03;;;3.66;100.00
70781;BME280;59514;48.810;2.134;2022-12-07T12:49:43;100626.09;;;3.45;100.00
70781;BME280;59514;48.810;2.134;2022-12-07T12:55:15;100620.94;;;3.44;100.00
70781;BME280;59514;48.810;2.134;2022-12-07T12:57:45;100612.16;;;3.52;100.00
70781;BME280;59514;48.810;2.134;2022-12-07T13:00:22;100614.22;;;3.64;100.00
70781;BME280;59514;48.810;2.134;2022-12-07T13:02:53;100606.91;;;3.66;100.00
70781;BME280;59514;48.810;2.134;2022-12-07T13:05:22;100610.88;;;3.70;100.00
70781;BME280;59514;48.810;2.134;2022-12-07T13:07:56;100597.59;;;3.70;100.00
70781;BME280;59514;48.810;2.134;2022-12-07T13:18:22;100595.91;;;3.77;100.00
70781;BME280;59514;48.810;2.134;2022-12-07T13:29:09;100590.59;;;3.77;100.00
70781;BME280;59514;48.810;2.134;2022-12-07T13:31:47;100591.28;;;3.71;100.00
70781;BME280;59514;48.810;2.134;2022-12-07T13:34:39;100595.44;;;3.74;100.00
70781;BME280;59514;48.810;2.134;2022-12-07T13:37:12;100580.91;;;3.84;100.00
70781;BME280;59514;48.810;2.134;2022-12-07T13:39:50;100574.94;;;3.82;100.00
70781;BME280;59514;48.810;2.134;2022-12-07T13:42:27;100572.88;;;3.92;100.00
70781;BME280;59514;48.810;2.134;2022-12-07T13:44:54;100568.16;;;4.02;100.00
70781;BME280;59514;48.810;2.134;2022-12-07T13:47:31;100578.84;;;3.94;100.00
70781;BME280;59514;48.810;2.134;2022-12-07T13:49:57;100561.69;;;4.05;100.00
70781;BME280;59514;48.810;2.134;2022-12-07T13:52:27;100570.50;;;4.20;100.00
70781;BME280;59514;48.810;2.134;2022-12-07T13:54:56;100563.03;;;4.38;100.00
70781;BME280;59514;48.810;2.134;2022-12-07T13:57:24;100548.50;;;4.49;100.00
70781;BME280;59514;48.810;2.134;2022-12-07T13:59:50;100552.44;;;4.53;100.00
70781;BME280;59514;48.810;2.134;2022-12-07T14:02:21;100552.97;;;4.48;100.00
70781;BME280;59514;48.810;2.134;2022-12-07T14:04:49;100539.34;;;4.51;100.00
70781;BME280;59514;48.810;2.134;2022-12-07T14:07:26;100540.25;;;4.58;100.00
70781;BME280;59514;48.810;2.134;2022-12-07T14:12:24;100531.09;;;4.90;100.00
70781;BME280;59514;48.810;2.134;2022-12-07T14:14:51;100532.47;;;5.00;100.00
70781;BME280;59514;48.810;2.134;2022-12-07T14:17:23;100534.94;;;5.02;100.00
70781;BME280;59514;48.810;2.134;2022-12-07T14:25:00;100531.75;;;5.42;100.00
70781;BME280;59514;48.810;2.134;2022-12-07T14:27:31;100519.31;;;5.49;100.00
70781;BME280;59514;48.810;2.134;2022-12-07T14:30:01;100525.03;;;5.46;100.00
70781;BME280;59514;48.810;2.134;2022-12-07T14:32:27;100525.94;;;5.74;100.00
70781;BME280;59514;48.810;2.134;2022-12-07T14:35:03;100532.91;;;5.75;98.63
70781;BME280;59514;48.810;2.134;2022-12-07T14:37:33;100521.50;;;5.81;98.63